Time,TemperatureF,DewpointF,PressureIn,WindDirection,WindDirectionDegrees,WindSpeedMPH,WindSpeedGustMPH,Humidity,HourlyPrecipIn,Conditions,Clouds,dailyrainin,SoftwareType,DateUTC
2013-06-17 00:01:00,67.1,65.3,29.94,NNE,17,1.0,1.0,94,0.00,,,0.00,WeatherCatV1.15B25,2013-06-17 05:01:00,
2013-06-17 00:06:00,67.2,65.4,29.95,NNW,341,1.0,4.0,94,0.00,,,0.00,WeatherCatV1.15B25,2013-06-17 05:06:00,
2013-06-17 00:11:00,67.2,65.4,29.95,North,10,0.0,5.0,94,0.00,,,0.00,WeatherCatV1.15B25,2013-06-17 05:11:00,
2013-06-17 00:16:00,67.4,65.6,29.95,NE,40,1.0,3.0,94,0.00,,,0.00,WeatherCatV1.15B25,2013-06-17 05:16:00,
2013-06-17 00:21:00,67.5,66.0,29.95,East,88,0.0,3.0,95,0.00,,,0.00,WeatherCatV1.15B25,2013-06-17 05:21:00,
2013-06-17 00:26:00,67.6,66.1,29.95,East,86,0.0,3.0,95,0.00,,,0.00,WeatherCatV1.15B25,2013-06-17 05:26:00,
2013-06-17 00:31:00,67.7,66.2,29.96,SE,130,1.0,1.0,95,0.00,,,0.00,WeatherCatV1.15B25,2013-06-17 05:31:00,
2013-06-17 00:36:00,67.9,66.4,29.95,WSW,243,1.0,3.0,95,0.00,,,0.00,WeatherCatV1.15B25,2013-06-17 05:36:00,
2013-06-17 00:41:00,67.9,66.4,29.96,WSW,243,0.0,1.0,95,0.00,,,0.00,WeatherCatV1.15B25,2013-06-17 05:41:00,
2013-06-17 00:46:00,67.9,66.4,29.96,NNW,343,3.0,3.0,95,0.00,,,0.00,WeatherCatV1.15B25,2013-06-17 05:46:00,
2013-06-17 00:51:00,67.9,66.4,29.95,NW,316,1.0,1.0,95,0.00,,,0.00,WeatherCatV1.15B25,2013-06-17 05:51:00,
2013-06-17 00:53:00,67.9,66.4,29.95,WSW,253,0.0,1.0,95,0.00,,,0.01,WeatherCatV1.15B25,2013-06-17 05:53:00,
2013-06-17 00:58:00,67.8,66.3,29.95,WSW,253,0.0,0.0,95,0.00,,,0.01,WeatherCatV1.15B25,2013-06-17 05:58:00,
2013-06-17 01:03:00,67.8,66.3,29.95,North,5,0.0,1.0,95,0.00,,,0.01,WeatherCatV1.15B25,2013-06-17 06:03:00,
2013-06-17 01:08:00,67.8,66.3,29.97,WSW,243,1.0,2.0,95,0.00,,,0.01,WeatherCatV1.15B25,2013-06-17 06:08:00,
2013-06-17 01:13:00,67.7,66.5,29.97,ENE,72,2.0,3.0,96,0.00,,,0.01,WeatherCatV1.15B25,2013-06-17 06:13:00,
2013-06-17 01:18:00,67.7,66.5,29.97,ENE,72,1.0,1.0,96,0.00,,,0.01,WeatherCatV1.15B25,2013-06-17 06:18:00,
2013-06-17 01:23:00,67.7,66.5,29.97,ESE,115,0.0,0.0,96,0.00,,,0.01,WeatherCatV1.15B25,2013-06-17 06:23:00,
2013-06-17 01:28:00,67.6,66.4,29.97,ESE,115,0.0,1.0,96,0.00,,,0.01,WeatherCatV1.15B25,2013-06-17 06:28:00,
2013-06-17 01:33:00,67.6,66.4,29.97,ESE,115,0.0,0.0,96,0.00,,,0.01,WeatherCatV1.15B25,2013-06-17 06:33:00,
2013-06-17 01:38:00,67.6,66.4,29.97,SE,143,0.0,1.0,96,0.00,,,0.01,WeatherCatV1.15B25,2013-06-17 06:38:00,
2013-06-17 01:43:00,67.5,66.3,29.96,SE,143,0.0,1.0,96,0.17,,,0.02,WeatherCatV1.15B25,2013-06-17 06:43:00,
2013-06-17 01:48:00,67.5,66.3,29.96,SSE,155,1.0,3.0,96,0.12,,,0.03,WeatherCatV1.15B25,2013-06-17 06:48:00,
2013-06-17 01:53:00,67.4,66.2,29.95,SSE,150,1.0,2.0,96,0.06,,,0.03,WeatherCatV1.15B25,2013-06-17 06:53:00,
2013-06-17 01:58:00,67.3,66.1,29.94,SW,218,2.0,2.0,96,0.04,,,0.03,WeatherCatV1.15B25,2013-06-17 06:58:00,
2013-06-17 02:03:00,67.2,66.0,29.95,ENE,73,4.0,4.0,96,0.00,,,0.03,WeatherCatV1.15B25,2013-06-17 07:03:00,
2013-06-17 02:08:00,67.1,66.2,29.96,ENE,65,2.0,4.0,97,0.00,,,0.03,WeatherCatV1.15B25,2013-06-17 07:08:00,
2013-06-17 02:13:00,67.1,66.2,29.96,ENE,61,2.0,2.0,97,0.00,,,0.03,WeatherCatV1.15B25,2013-06-17 07:13:00,
2013-06-17 02:18:00,67.1,66.2,29.96,North,355,1.0,5.0,97,0.00,,,0.03,WeatherCatV1.15B25,2013-06-17 07:18:00,
2013-06-17 02:23:00,67.0,66.1,29.95,NE,40,0.0,1.0,97,0.00,,,0.03,WeatherCatV1.15B25,2013-06-17 07:23:00,
2013-06-17 02:28:00,67.0,66.1,29.95,NW,323,0.0,3.0,97,0.00,,,0.04,WeatherCatV1.15B25,2013-06-17 07:28:00,
2013-06-17 02:33:00,67.0,66.1,29.95,North,355,0.0,2.0,97,0.00,,,0.04,WeatherCatV1.15B25,2013-06-17 07:33:00,
2013-06-17 02:38:00,66.9,66.0,29.94,NNW,340,1.0,5.0,97,0.00,,,0.04,WeatherCatV1.15B25,2013-06-17 07:38:00,
2013-06-17 02:43:00,66.9,66.0,29.93,NW,320,2.0,3.0,97,0.00,,,0.04,WeatherCatV1.15B25,2013-06-17 07:43:00,
2013-06-17 02:48:00,66.8,65.9,29.92,NNW,328,0.0,1.0,97,0.00,,,0.04,WeatherCatV1.15B25,2013-06-17 07:48:00,
2013-06-17 02:53:00,66.8,65.9,29.92,NNW,328,0.0,0.0,97,0.00,,,0.04,WeatherCatV1.15B25,2013-06-17 07:53:00,
2013-06-17 02:58:00,66.8,65.9,29.91,WSW,251,0.0,0.0,97,0.00,,,0.04,WeatherCatV1.15B25,2013-06-17 07:58:00,
2013-06-17 03:03:00,66.7,65.8,29.90,WSW,251,0.0,0.0,97,0.00,,,0.04,WeatherCatV1.15B25,2013-06-17 08:03:00,
2013-06-17 03:08:00,66.7,65.8,29.89,NW,315,1.0,3.0,97,0.00,,,0.05,WeatherCatV1.15B25,2013-06-17 08:08:00,
2013-06-17 03:13:00,66.7,65.8,29.88,NW,315,0.0,1.0,97,0.00,,,0.05,WeatherCatV1.15B25,2013-06-17 08:13:00,
2013-06-17 03:18:00,66.6,65.7,29.88,NW,305,2.0,2.0,97,0.00,,,0.05,WeatherCatV1.15B25,2013-06-17 08:18:00,
2013-06-17 03:23:00,66.6,65.7,29.87,WSW,244,0.0,3.0,97,0.00,,,0.05,WeatherCatV1.15B25,2013-06-17 08:23:00,
2013-06-17 03:28:00,66.6,65.7,29.87,WSW,246,0.0,1.0,97,0.00,,,0.05,WeatherCatV1.15B25,2013-06-17 08:28:00,
2013-06-17 03:33:00,66.5,65.6,29.87,West,269,1.0,1.0,97,0.00,,,0.05,WeatherCatV1.15B25,2013-06-17 08:33:00,
2013-06-17 03:38:00,66.5,65.6,29.88,SSW,202,1.0,3.0,97,0.00,,,0.05,WeatherCatV1.15B25,2013-06-17 08:38:00,
2013-06-17 03:43:00,66.4,65.5,29.88,West,262,0.0,1.0,97,0.00,,,0.05,WeatherCatV1.15B25,2013-06-17 08:43:00,
2013-06-17 03:48:00,66.3,65.4,29.88,NW,305,1.0,3.0,97,0.00,,,0.05,WeatherCatV1.15B25,2013-06-17 08:48:00,
2013-06-17 03:53:00,66.3,65.4,29.88,SW,217,3.0,4.0,97,0.00,,,0.06,WeatherCatV1.15B25,2013-06-17 08:53:00,
2013-06-17 03:58:00,66.2,65.3,29.87,West,270,0.0,4.0,97,0.00,,,0.06,WeatherCatV1.15B25,2013-06-17 08:58:00,
2013-06-17 04:03:00,66.2,65.3,29.87,SW,225,0.0,0.0,97,0.00,,,0.06,WeatherCatV1.15B25,2013-06-17 09:03:00,
2013-06-17 04:08:00,66.2,65.3,29.87,SSW,212,3.0,3.0,97,0.00,,,0.06,WeatherCatV1.15B25,2013-06-17 09:08:00,
2013-06-17 04:13:00,66.2,65.3,29.88,SSE,168,3.0,3.0,97,0.00,,,0.06,WeatherCatV1.15B25,2013-06-17 09:13:00,
2013-06-17 04:18:00,66.1,65.5,29.88,SW,225,3.0,7.0,98,0.00,,,0.06,WeatherCatV1.15B25,2013-06-17 09:18:00,
2013-06-17 04:23:00,66.1,65.5,29.88,SSE,163,5.0,7.0,98,0.00,,,0.06,WeatherCatV1.15B25,2013-06-17 09:23:00,
2013-06-17 04:28:00,65.9,65.0,29.88,SW,225,0.0,6.0,97,0.00,,,0.06,WeatherCatV1.15B25,2013-06-17 09:28:00,
2013-06-17 04:33:00,65.8,64.9,29.87,South,184,1.0,3.0,97,0.00,,,0.06,WeatherCatV1.15B25,2013-06-17 09:33:00,
2013-06-17 04:38:00,65.6,64.7,29.87,SSE,153,0.0,4.0,97,0.00,,,0.06,WeatherCatV1.15B25,2013-06-17 09:38:00,
2013-06-17 04:43:00,65.5,64.6,29.86,South,172,0.0,4.0,97,0.00,,,0.06,WeatherCatV1.15B25,2013-06-17 09:43:00,
2013-06-17 04:48:00,65.4,64.5,29.86,SW,218,0.0,3.0,97,0.00,,,0.06,WeatherCatV1.15B25,2013-06-17 09:48:00,
2013-06-17 04:53:00,65.3,64.4,29.86,SW,227,2.0,5.0,97,0.00,,,0.06,WeatherCatV1.15B25,2013-06-17 09:53:00,
2013-06-17 04:58:00,65.2,64.3,29.86,SSW,192,0.0,2.0,97,0.00,,,0.06,WeatherCatV1.15B25,2013-06-17 09:58:00,
2013-06-17 05:03:00,64.9,64.0,29.85,SSW,202,2.0,3.0,97,0.00,,,0.06,WeatherCatV1.15B25,2013-06-17 10:03:00,
2013-06-17 05:08:00,64.8,63.9,29.85,South,176,1.0,2.0,97,0.00,,,0.06,WeatherCatV1.15B25,2013-06-17 10:08:00,
2013-06-17 05:13:00,64.7,63.8,29.85,SSE,147,0.0,1.0,97,0.00,,,0.06,WeatherCatV1.15B25,2013-06-17 10:13:00,
2013-06-17 05:18:00,64.6,63.7,29.85,SSE,156,0.0,1.0,97,0.00,,,0.06,WeatherCatV1.15B25,2013-06-17 10:18:00,
2013-06-17 05:23:00,64.5,63.6,29.84,SSE,156,0.0,0.0,97,0.00,,,0.06,WeatherCatV1.15B25,2013-06-17 10:23:00,
2013-06-17 05:28:00,64.5,63.6,29.84,SSE,148,3.0,3.0,97,0.00,,,0.06,WeatherCatV1.15B25,2013-06-17 10:28:00,
2013-06-17 05:33:00,64.4,63.5,29.83,ESE,120,1.0,3.0,97,0.00,,,0.06,WeatherCatV1.15B25,2013-06-17 10:33:00,
2013-06-17 05:38:00,64.3,63.4,29.83,ESE,111,0.0,1.0,97,0.00,,,0.06,WeatherCatV1.15B25,2013-06-17 10:38:00,
2013-06-17 05:43:00,64.2,63.3,29.83,East,100,2.0,3.0,97,0.00,,,0.06,WeatherCatV1.15B25,2013-06-17 10:43:00,
2013-06-17 05:48:00,64.1,63.2,29.84,ESE,122,1.0,3.0,97,0.00,,,0.06,WeatherCatV1.15B25,2013-06-17 10:48:00,
2013-06-17 05:53:00,64.1,63.2,29.84,NNW,340,2.0,3.0,97,0.00,,,0.06,WeatherCatV1.15B25,2013-06-17 10:53:00,
2013-06-17 05:58:00,64.1,63.2,29.86,WNW,302,0.0,3.0,97,0.00,,,0.06,WeatherCatV1.15B25,2013-06-17 10:58:00,
2013-06-17 06:03:00,64.1,63.2,29.86,WNW,302,0.0,1.0,97,0.00,,,0.06,WeatherCatV1.15B25,2013-06-17 11:03:00,
2013-06-17 06:08:00,64.1,63.2,29.86,SW,223,0.0,3.0,97,0.00,,,0.06,WeatherCatV1.15B25,2013-06-17 11:08:00,
2013-06-17 06:13:00,64.2,63.3,29.86,SW,229,2.0,2.0,97,0.00,,,0.06,WeatherCatV1.15B25,2013-06-17 11:13:00,
2013-06-17 06:18:00,64.1,63.2,29.87,NNE,13,0.0,2.0,97,0.00,,,0.06,WeatherCatV1.15B25,2013-06-17 11:18:00,
2013-06-17 06:23:00,64.1,63.2,29.88,NNW,348,0.0,2.0,97,0.00,,,0.06,WeatherCatV1.15B25,2013-06-17 11:23:00,
2013-06-17 06:28:00,64.2,63.3,29.89,NNE,24,0.0,1.0,97,0.00,,,0.06,WeatherCatV1.15B25,2013-06-17 11:28:00,
2013-06-17 06:33:00,64.2,63.6,29.89,ESE,105,2.0,2.0,98,0.00,,,0.06,WeatherCatV1.15B25,2013-06-17 11:33:00,
2013-06-17 06:38:00,64.3,63.4,29.89,NE,55,2.0,2.0,97,0.00,,,0.06,WeatherCatV1.15B25,2013-06-17 11:38:00,
2013-06-17 06:43:00,64.4,63.8,29.90,ENE,62,2.0,5.0,98,0.00,,,0.06,WeatherCatV1.15B25,2013-06-17 11:43:00,
2013-06-17 06:48:00,64.4,63.8,29.89,ESE,109,3.0,5.0,98,0.00,,,0.07,WeatherCatV1.15B25,2013-06-17 11:48:00,
2013-06-17 06:53:00,64.6,64.0,29.89,ESE,117,2.0,5.0,98,0.00,,,0.07,WeatherCatV1.15B25,2013-06-17 11:53:00,
2013-06-17 06:58:00,64.7,64.1,29.89,ENE,76,1.0,2.0,98,0.00,,,0.07,WeatherCatV1.15B25,2013-06-17 11:58:00,
2013-06-17 07:03:00,64.8,64.2,29.89,East,88,0.0,5.0,98,0.00,,,0.07,WeatherCatV1.15B25,2013-06-17 12:03:00,
2013-06-17 07:08:00,64.9,64.3,29.89,East,81,0.0,1.0,98,0.00,,,0.07,WeatherCatV1.15B25,2013-06-17 12:08:00,
2013-06-17 07:13:00,65.0,64.4,29.89,East,82,0.0,2.0,98,0.00,,,0.07,WeatherCatV1.15B25,2013-06-17 12:13:00,
2013-06-17 07:18:00,65.1,64.5,29.89,NNE,26,0.0,2.0,98,0.00,,,0.07,WeatherCatV1.15B25,2013-06-17 12:18:00,
2013-06-17 07:23:00,65.2,64.6,29.90,West,275,2.0,2.0,98,0.00,,,0.07,WeatherCatV1.15B25,2013-06-17 12:23:00,
2013-06-17 07:28:00,65.4,64.8,29.91,WSW,246,1.0,3.0,98,0.00,,,0.07,WeatherCatV1.15B25,2013-06-17 12:28:00,
2013-06-17 07:33:00,65.5,64.9,29.91,NW,307,0.0,1.0,98,0.00,,,0.07,WeatherCatV1.15B25,2013-06-17 12:33:00,
2013-06-17 07:38:00,65.6,65.0,29.91,NW,307,0.0,0.0,98,0.00,,,0.07,WeatherCatV1.15B25,2013-06-17 12:38:00,
2013-06-17 07:43:00,65.7,65.1,29.90,SSW,200,1.0,2.0,98,0.00,,,0.07,WeatherCatV1.15B25,2013-06-17 12:43:00,
2013-06-17 07:48:00,65.7,65.1,29.90,NE,47,0.0,1.0,98,0.00,,,0.07,WeatherCatV1.15B25,2013-06-17 12:48:00,
2013-06-17 07:53:00,65.7,65.1,29.90,ENE,73,0.0,0.0,98,0.00,,,0.07,WeatherCatV1.15B25,2013-06-17 12:53:00,
2013-06-17 07:58:00,65.8,65.2,29.90,ENE,74,0.0,0.0,98,0.00,,,0.07,WeatherCatV1.15B25,2013-06-17 12:58:00,
2013-06-17 08:03:00,65.9,65.3,29.91,NNE,20,0.0,0.0,98,0.00,,,0.07,WeatherCatV1.15B25,2013-06-17 13:03:00,
2013-06-17 08:08:00,66.1,65.5,29.90,NE,55,0.0,0.0,98,0.00,,,0.07,WeatherCatV1.15B25,2013-06-17 13:08:00,
2013-06-17 08:13:00,66.2,65.6,29.91,NE,55,0.0,1.0,98,0.00,,,0.07,WeatherCatV1.15B25,2013-06-17 13:13:00,
2013-06-17 08:18:00,66.4,65.8,29.91,NE,55,0.0,0.0,98,0.00,,,0.07,WeatherCatV1.15B25,2013-06-17 13:18:00,
2013-06-17 08:23:00,66.6,66.0,29.91,NNE,26,0.0,1.0,98,0.00,,,0.07,WeatherCatV1.15B25,2013-06-17 13:23:00,
2013-06-17 08:28:00,66.7,66.1,29.91,SW,229,0.0,0.0,98,0.00,,,0.07,WeatherCatV1.15B25,2013-06-17 13:28:00,
2013-06-17 08:33:00,66.8,66.2,29.91,WNW,298,0.0,0.0,98,0.00,,,0.07,WeatherCatV1.15B25,2013-06-17 13:33:00,
2013-06-17 08:38:00,66.9,66.3,29.91,WNW,298,0.0,1.0,98,0.00,,,0.07,WeatherCatV1.15B25,2013-06-17 13:38:00,
2013-06-17 08:43:00,66.9,66.3,29.91,WNW,298,0.0,0.0,98,0.00,,,0.07,WeatherCatV1.15B25,2013-06-17 13:43:00,
2013-06-17 08:48:00,67.0,66.4,29.90,SW,226,0.0,0.0,98,0.00,,,0.07,WeatherCatV1.15B25,2013-06-17 13:48:00,
2013-06-17 08:53:00,67.1,66.5,29.90,SW,226,0.0,0.0,98,0.00,,,0.07,WeatherCatV1.15B25,2013-06-17 13:53:00,
2013-06-17 08:58:00,67.2,66.6,29.91,SW,226,0.0,0.0,98,0.00,,,0.07,WeatherCatV1.15B25,2013-06-17 13:58:00,
2013-06-17 09:03:00,67.3,66.7,29.90,South,182,0.0,0.0,98,0.00,,,0.07,WeatherCatV1.15B25,2013-06-17 14:03:00,
2013-06-17 09:08:00,67.4,66.8,29.91,WNW,301,0.0,0.0,98,0.00,,,0.07,WeatherCatV1.15B25,2013-06-17 14:08:00,
2013-06-17 09:13:00,67.5,66.9,29.91,WNW,299,0.0,1.0,98,0.00,,,0.07,WeatherCatV1.15B25,2013-06-17 14:13:00,
2013-06-17 09:18:00,67.5,66.9,29.91,WNW,299,0.0,0.0,98,0.00,,,0.07,WeatherCatV1.15B25,2013-06-17 14:18:00,
2013-06-17 09:23:00,67.7,67.1,29.91,SW,236,0.0,1.0,98,0.00,,,0.07,WeatherCatV1.15B25,2013-06-17 14:23:00,
2013-06-17 09:28:00,67.8,67.2,29.91,South,182,2.0,2.0,98,0.00,,,0.07,WeatherCatV1.15B25,2013-06-17 14:28:00,
2013-06-17 09:33:00,67.8,67.2,29.91,South,169,0.0,1.0,98,0.00,,,0.07,WeatherCatV1.15B25,2013-06-17 14:33:00,
2013-06-17 09:38:00,67.9,67.3,29.91,South,169,0.0,1.0,98,0.00,,,0.07,WeatherCatV1.15B25,2013-06-17 14:38:00,
2013-06-17 09:43:00,68.0,67.4,29.91,WSW,240,0.0,0.0,98,0.00,,,0.07,WeatherCatV1.15B25,2013-06-17 14:43:00,
2013-06-17 09:48:00,68.3,67.7,29.92,WSW,249,0.0,1.0,98,0.00,,,0.07,WeatherCatV1.15B25,2013-06-17 14:48:00,
2013-06-17 09:53:00,68.4,67.8,29.92,West,261,0.0,1.0,98,0.00,,,0.07,WeatherCatV1.15B25,2013-06-17 14:53:00,
2013-06-17 09:58:00,68.5,67.9,29.92,WSW,254,0.0,2.0,98,0.00,,,0.07,WeatherCatV1.15B25,2013-06-17 14:58:00,
2013-06-17 10:03:00,68.5,67.9,29.92,WSW,254,0.0,1.0,98,0.00,,,0.07,WeatherCatV1.15B25,2013-06-17 15:03:00,
2013-06-17 10:08:00,68.5,67.6,29.92,WNW,297,0.0,1.0,97,0.00,,,0.07,WeatherCatV1.15B25,2013-06-17 15:08:00,
2013-06-17 10:13:00,68.6,67.7,29.92,WNW,297,1.0,1.0,97,0.00,,,0.07,WeatherCatV1.15B25,2013-06-17 15:13:00,
2013-06-17 10:18:00,68.7,67.8,29.92,North,5,2.0,4.0,97,0.00,,,0.07,WeatherCatV1.15B25,2013-06-17 15:18:00,
2013-06-17 10:23:00,68.8,67.9,29.92,North,5,1.0,3.0,97,0.00,,,0.07,WeatherCatV1.15B25,2013-06-17 15:23:00,
2013-06-17 10:28:00,68.9,68.0,29.92,North,355,2.0,2.0,97,0.00,,,0.07,WeatherCatV1.15B25,2013-06-17 15:28:00,
2013-06-17 10:33:00,69.0,68.1,29.92,NNW,343,1.0,1.0,97,0.00,,,0.07,WeatherCatV1.15B25,2013-06-17 15:33:00,
2013-06-17 10:38:00,69.2,68.3,29.92,NNW,343,1.0,2.0,97,0.00,,,0.07,WeatherCatV1.15B25,2013-06-17 15:38:00,
2013-06-17 10:43:00,69.4,68.5,29.93,NNW,338,0.0,1.0,97,0.00,,,0.07,WeatherCatV1.15B25,2013-06-17 15:43:00,
2013-06-17 10:48:00,69.7,68.8,29.94,SSW,213,2.0,3.0,97,0.00,,,0.07,WeatherCatV1.15B25,2013-06-17 15:48:00,
2013-06-17 10:53:00,69.7,68.5,29.93,SW,214,0.0,0.0,96,0.00,,,0.07,WeatherCatV1.15B25,2013-06-17 15:53:00,
2013-06-17 10:58:00,69.8,68.6,29.93,NW,323,0.0,1.0,96,0.00,,,0.07,WeatherCatV1.15B25,2013-06-17 15:58:00,
2013-06-17 11:03:00,69.9,68.7,29.93,East,92,0.0,0.0,96,0.00,,,0.07,WeatherCatV1.15B25,2013-06-17 16:03:00,
2013-06-17 11:08:00,70.1,68.9,29.94,West,271,0.0,2.0,96,0.00,,,0.07,WeatherCatV1.15B25,2013-06-17 16:08:00,
2013-06-17 11:13:00,70.2,69.0,29.94,WSW,248,0.0,1.0,96,0.00,,,0.07,WeatherCatV1.15B25,2013-06-17 16:13:00,
2013-06-17 11:18:00,70.3,69.1,29.94,NNW,336,1.0,2.0,96,0.00,,,0.07,WeatherCatV1.15B25,2013-06-17 16:18:00,
2013-06-17 11:23:00,70.4,68.9,29.94,WNW,302,0.0,4.0,95,0.00,,,0.07,WeatherCatV1.15B25,2013-06-17 16:23:00,
2013-06-17 11:28:00,70.4,68.9,29.94,North,355,1.0,4.0,95,0.00,,,0.07,WeatherCatV1.15B25,2013-06-17 16:28:00,
2013-06-17 11:33:00,70.6,69.1,29.94,North,355,1.0,4.0,95,0.00,,,0.07,WeatherCatV1.15B25,2013-06-17 16:33:00,
2013-06-17 11:38:00,70.8,69.3,29.94,North,350,2.0,4.0,95,0.00,,,0.07,WeatherCatV1.15B25,2013-06-17 16:38:00,
2013-06-17 11:43:00,70.8,69.0,29.94,NW,313,0.0,1.0,94,0.00,,,0.07,WeatherCatV1.15B25,2013-06-17 16:43:00,
2013-06-17 11:48:00,70.7,68.6,29.94,NW,313,0.0,2.0,93,0.00,,,0.07,WeatherCatV1.15B25,2013-06-17 16:48:00,
2013-06-17 11:53:00,70.7,68.6,29.94,NNW,342,0.0,0.0,93,0.00,,,0.07,WeatherCatV1.15B25,2013-06-17 16:53:00,
2013-06-17 11:58:00,70.6,68.5,29.94,North,351,2.0,3.0,93,0.00,,,0.07,WeatherCatV1.15B25,2013-06-17 16:58:00,
2013-06-17 12:03:00,70.4,68.0,29.94,North,350,0.0,2.0,92,0.00,,,0.07,WeatherCatV1.15B25,2013-06-17 17:03:00,
2013-06-17 12:08:00,70.4,68.0,29.93,ENE,65,1.0,2.0,92,0.00,,,0.07,WeatherCatV1.15B25,2013-06-17 17:08:00,
2013-06-17 12:13:00,70.4,68.0,29.94,ENE,65,0.0,0.0,92,0.00,,,0.07,WeatherCatV1.15B25,2013-06-17 17:13:00,
2013-06-17 12:18:00,70.5,68.1,29.93,NNW,346,1.0,4.0,92,0.00,,,0.07,WeatherCatV1.15B25,2013-06-17 17:18:00,
2013-06-17 12:23:00,70.6,68.5,29.93,North,9,1.0,4.0,93,0.00,,,0.08,WeatherCatV1.15B25,2013-06-17 17:23:00,
2013-06-17 12:28:00,70.7,68.6,29.93,North,0,0.0,4.0,93,0.00,,,0.08,WeatherCatV1.15B25,2013-06-17 17:28:00,
2013-06-17 12:33:00,70.8,68.7,29.93,NNW,338,1.0,2.0,93,0.00,,,0.08,WeatherCatV1.15B25,2013-06-17 17:33:00,
2013-06-17 12:38:00,70.9,68.8,29.93,North,351,3.0,4.0,93,0.00,,,0.08,WeatherCatV1.15B25,2013-06-17 17:38:00,
2013-06-17 12:43:00,70.8,68.7,29.93,NW,321,3.0,4.0,93,0.00,,,0.08,WeatherCatV1.15B25,2013-06-17 17:43:00,
2013-06-17 12:48:00,70.9,68.8,29.93,North,355,4.0,4.0,93,0.00,,,0.08,WeatherCatV1.15B25,2013-06-17 17:48:00,
2013-06-17 12:53:00,71.0,68.9,29.93,NNW,345,3.0,4.0,93,0.00,,,0.08,WeatherCatV1.15B25,2013-06-17 17:53:00,
2013-06-17 12:58:00,71.0,68.9,29.93,NW,309,4.0,5.0,93,0.00,,,0.08,WeatherCatV1.15B25,2013-06-17 17:58:00,
2013-06-17 13:03:00,71.0,68.9,29.93,NW,309,1.0,2.0,93,0.00,,,0.08,WeatherCatV1.15B25,2013-06-17 18:03:00,
2013-06-17 13:08:00,71.2,69.1,29.94,WSW,243,1.0,2.0,93,0.00,,,0.08,WeatherCatV1.15B25,2013-06-17 18:08:00,
2013-06-17 13:13:00,71.2,68.8,29.94,WSW,243,0.0,1.0,92,0.00,,,0.08,WeatherCatV1.15B25,2013-06-17 18:13:00,
2013-06-17 13:18:00,71.3,69.2,29.94,SSW,213,0.0,2.0,93,0.00,,,0.08,WeatherCatV1.15B25,2013-06-17 18:18:00,
2013-06-17 13:23:00,71.4,69.3,29.94,SW,227,0.0,1.0,93,0.00,,,0.08,WeatherCatV1.15B25,2013-06-17 18:23:00,
2013-06-17 13:28:00,71.4,69.3,29.94,SSW,212,0.0,0.0,93,0.00,,,0.08,WeatherCatV1.15B25,2013-06-17 18:28:00,
2013-06-17 13:33:00,71.3,68.8,29.95,SW,221,2.0,4.0,92,0.00,,,0.08,WeatherCatV1.15B25,2013-06-17 18:33:00,
2013-06-17 13:38:00,71.2,68.8,29.94,SW,221,1.0,2.0,92,0.00,,,0.08,WeatherCatV1.15B25,2013-06-17 18:38:00,
2013-06-17 13:43:00,71.2,68.8,29.94,SW,221,1.0,2.0,92,0.00,,,0.08,WeatherCatV1.15B25,2013-06-17 18:43:00,
2013-06-17 13:48:00,71.3,69.2,29.94,WSW,256,0.0,2.0,93,0.00,,,0.08,WeatherCatV1.15B25,2013-06-17 18:48:00,
2013-06-17 13:53:00,71.4,69.6,29.94,WSW,256,0.0,0.0,94,0.00,,,0.08,WeatherCatV1.15B25,2013-06-17 18:53:00,
2013-06-17 13:58:00,71.5,69.7,29.93,NNW,338,3.0,4.0,94,0.00,,,0.09,WeatherCatV1.15B25,2013-06-17 18:58:00,
2013-06-17 14:03:00,71.5,69.7,29.93,North,5,3.0,6.0,94,0.00,,,0.09,WeatherCatV1.15B25,2013-06-17 19:03:00,
2013-06-17 14:08:00,71.4,69.6,29.92,NNW,346,3.0,5.0,94,0.00,,,0.09,WeatherCatV1.15B25,2013-06-17 19:08:00,
2013-06-17 14:13:00,71.4,69.6,29.92,NNE,28,1.0,4.0,94,0.00,,,0.09,WeatherCatV1.15B25,2013-06-17 19:13:00,
2013-06-17 14:18:00,71.5,69.7,29.92,NNW,344,4.0,7.0,94,0.00,,,0.09,WeatherCatV1.15B25,2013-06-17 19:18:00,
2013-06-17 14:23:00,71.5,69.7,29.91,North,5,6.0,6.0,94,0.00,,,0.09,WeatherCatV1.15B25,2013-06-17 19:23:00,
2013-06-17 14:28:00,71.6,69.8,29.91,North,350,3.0,5.0,94,0.00,,,0.09,WeatherCatV1.15B25,2013-06-17 19:28:00,
2013-06-17 14:33:00,71.7,69.9,29.90,NNW,348,3.0,3.0,94,0.00,,,0.09,WeatherCatV1.15B25,2013-06-17 19:33:00,
2013-06-17 14:38:00,71.9,70.1,29.90,East,88,0.0,2.0,94,0.00,,,0.09,WeatherCatV1.15B25,2013-06-17 19:38:00,
2013-06-17 14:43:00,72.1,70.3,29.90,NNE,23,2.0,6.0,94,0.00,,,0.09,WeatherCatV1.15B25,2013-06-17 19:43:00,
2013-06-17 14:48:00,72.1,70.0,29.90,NNW,340,4.0,4.0,93,0.00,,,0.09,WeatherCatV1.15B25,2013-06-17 19:48:00,
2013-06-17 14:53:00,72.2,70.1,29.90,NNW,347,2.0,3.0,93,0.00,,,0.09,WeatherCatV1.15B25,2013-06-17 19:53:00,
2013-06-17 14:59:00,72.3,70.2,29.90,NNE,28,2.0,4.0,93,0.00,,,0.09,WeatherCatV1.15B25,2013-06-17 19:59:00,
2013-06-17 15:04:00,72.3,69.8,29.89,NNW,346,4.0,8.0,92,0.00,,,0.09,WeatherCatV1.15B25,2013-06-17 20:04:00,
2013-06-17 15:09:00,72.3,69.8,29.89,NE,43,2.0,6.0,92,0.00,,,0.09,WeatherCatV1.15B25,2013-06-17 20:09:00,
2013-06-17 15:14:00,72.4,70.3,29.89,NE,48,3.0,3.0,93,0.00,,,0.09,WeatherCatV1.15B25,2013-06-17 20:14:00,
2013-06-17 15:19:00,72.4,69.9,29.88,North,355,5.0,5.0,92,0.00,,,0.09,WeatherCatV1.15B25,2013-06-17 20:19:00,
2013-06-17 15:24:00,72.4,69.9,29.88,NNE,15,3.0,6.0,92,0.00,,,0.09,WeatherCatV1.15B25,2013-06-17 20:24:00,
2013-06-17 15:29:00,72.5,70.0,29.88,North,355,0.0,2.0,92,0.00,,,0.09,WeatherCatV1.15B25,2013-06-17 20:29:00,
2013-06-17 15:34:00,72.6,69.8,29.88,NE,43,2.0,4.0,91,0.00,,,0.09,WeatherCatV1.15B25,2013-06-17 20:34:00,
2013-06-17 15:39:00,72.6,69.8,29.88,North,350,1.0,7.0,91,0.00,,,0.09,WeatherCatV1.15B25,2013-06-17 20:39:00,
2013-06-17 15:44:00,72.6,69.5,29.87,NW,313,0.0,5.0,90,0.00,,,0.09,WeatherCatV1.15B25,2013-06-17 20:44:00,
2013-06-17 15:49:00,72.6,69.8,29.87,NNE,22,0.0,3.0,91,0.00,,,0.09,WeatherCatV1.15B25,2013-06-17 20:49:00,
2013-06-17 15:54:00,72.8,70.0,29.87,NE,54,1.0,6.0,91,0.00,,,0.09,WeatherCatV1.15B25,2013-06-17 20:54:00,
2013-06-17 15:59:00,72.9,70.1,29.87,North,0,3.0,3.0,91,0.00,,,0.09,WeatherCatV1.15B25,2013-06-17 20:59:00,
2013-06-17 16:04:00,72.9,70.1,29.88,North,349,2.0,4.0,91,0.00,,,0.09,WeatherCatV1.15B25,2013-06-17 21:04:00,
2013-06-17 16:09:00,73.0,70.2,29.88,NNW,340,2.0,5.0,91,0.00,,,0.09,WeatherCatV1.15B25,2013-06-17 21:09:00,
2013-06-17 16:14:00,73.0,70.2,29.88,North,355,1.0,6.0,91,0.00,,,0.09,WeatherCatV1.15B25,2013-06-17 21:14:00,
2013-06-17 16:19:00,73.0,70.2,29.88,ENE,59,2.0,4.0,91,0.00,,,0.09,WeatherCatV1.15B25,2013-06-17 21:19:00,
2013-06-17 16:24:00,73.2,70.7,29.88,NNW,346,2.0,3.0,92,0.00,,,0.09,WeatherCatV1.15B25,2013-06-17 21:24:00,
2013-06-17 16:29:00,73.2,70.7,29.88,NNW,334,0.0,5.0,92,0.00,,,0.09,WeatherCatV1.15B25,2013-06-17 21:29:00,
2013-06-17 16:34:00,73.3,70.8,29.88,NNE,16,2.0,5.0,92,0.00,,,0.09,WeatherCatV1.15B25,2013-06-17 21:34:00,
2013-06-17 16:39:00,73.3,70.8,29.88,NNW,329,0.0,3.0,92,0.00,,,0.09,WeatherCatV1.15B25,2013-06-17 21:39:00,
2013-06-17 16:44:00,73.3,70.8,29.88,NNW,331,0.0,4.0,92,0.00,,,0.09,WeatherCatV1.15B25,2013-06-17 21:44:00,
2013-06-17 16:49:00,73.3,70.5,29.88,NNE,32,2.0,6.0,91,0.00,,,0.09,WeatherCatV1.15B25,2013-06-17 21:49:00,
2013-06-17 16:54:00,73.2,70.4,29.88,NNW,341,7.0,8.0,91,0.00,,,0.09,WeatherCatV1.15B25,2013-06-17 21:54:00,
2013-06-17 16:59:00,73.0,70.2,29.89,NE,55,0.0,1.0,91,0.00,,,0.09,WeatherCatV1.15B25,2013-06-17 21:59:00,
2013-06-17 17:04:00,72.9,70.1,29.89,NW,309,0.0,3.0,91,0.00,,,0.09,WeatherCatV1.15B25,2013-06-17 22:04:00,
2013-06-17 17:09:00,72.8,70.0,29.89,NNW,336,0.0,2.0,91,0.00,,,0.09,WeatherCatV1.15B25,2013-06-17 22:09:00,
2013-06-17 17:14:00,72.8,70.0,29.89,NE,42,1.0,1.0,91,0.00,,,0.09,WeatherCatV1.15B25,2013-06-17 22:14:00,
2013-06-17 17:19:00,72.9,70.1,29.89,NE,36,2.0,3.0,91,0.00,,,0.09,WeatherCatV1.15B25,2013-06-17 22:19:00,
2013-06-17 17:24:00,72.8,70.0,29.89,NNW,327,1.0,5.0,91,0.00,,,0.09,WeatherCatV1.15B25,2013-06-17 22:24:00,
2013-06-17 17:29:00,72.8,70.0,29.89,NNE,30,0.0,8.0,91,0.00,,,0.09,WeatherCatV1.15B25,2013-06-17 22:29:00,
2013-06-17 17:34:00,72.8,69.7,29.89,North,355,0.0,3.0,90,0.00,,,0.09,WeatherCatV1.15B25,2013-06-17 22:34:00,
2013-06-17 17:39:00,72.7,69.6,29.89,NNE,22,0.0,5.0,90,0.00,,,0.09,WeatherCatV1.15B25,2013-06-17 22:39:00,
2013-06-17 17:44:00,72.8,70.0,29.90,NNW,348,2.0,4.0,91,0.00,,,0.09,WeatherCatV1.15B25,2013-06-17 22:44:00,
2013-06-17 17:49:00,72.7,69.9,29.90,NNW,336,3.0,5.0,91,0.00,,,0.09,WeatherCatV1.15B25,2013-06-17 22:49:00,
2013-06-17 17:54:00,72.5,69.7,29.90,NW,315,0.0,5.0,91,0.00,,,0.09,WeatherCatV1.15B25,2013-06-17 22:54:00,
2013-06-17 17:59:00,72.5,69.7,29.90,North,355,2.0,6.0,91,0.00,,,0.09,WeatherCatV1.15B25,2013-06-17 22:59:00,
2013-06-17 18:04:00,72.3,69.5,29.90,NNE,33,2.0,4.0,91,0.00,,,0.09,WeatherCatV1.15B25,2013-06-17 23:04:00,
2013-06-17 18:09:00,72.2,69.4,29.90,North,355,2.0,3.0,91,0.00,,,0.09,WeatherCatV1.15B25,2013-06-17 23:09:00,
2013-06-17 18:14:00,72.1,69.3,29.90,NNW,340,0.0,3.0,91,0.00,,,0.09,WeatherCatV1.15B25,2013-06-17 23:14:00,
2013-06-17 18:19:00,72.1,69.3,29.90,North,5,0.0,7.0,91,0.00,,,0.09,WeatherCatV1.15B25,2013-06-17 23:19:00,
2013-06-17 18:24:00,72.0,69.2,29.90,WNW,300,1.0,6.0,91,0.00,,,0.09,WeatherCatV1.15B25,2013-06-17 23:24:00,
2013-06-17 18:29:00,71.9,69.1,29.90,NNW,328,3.0,3.0,91,0.00,,,0.09,WeatherCatV1.15B25,2013-06-17 23:29:00,
2013-06-17 18:34:00,71.8,69.0,29.89,North,0,4.0,4.0,91,0.00,,,0.09,WeatherCatV1.15B25,2013-06-17 23:34:00,
2013-06-17 18:39:00,71.7,69.2,29.89,North,351,5.0,6.0,92,0.00,,,0.09,WeatherCatV1.15B25,2013-06-17 23:39:00,
2013-06-17 18:44:00,71.7,69.2,29.89,NNW,333,2.0,5.0,92,0.00,,,0.09,WeatherCatV1.15B25,2013-06-17 23:44:00,
2013-06-17 18:49:00,71.7,69.2,29.90,North,351,0.0,4.0,92,0.00,,,0.09,WeatherCatV1.15B25,2013-06-17 23:49:00,
2013-06-17 18:54:00,71.6,69.1,29.90,North,355,2.0,4.0,92,0.00,,,0.09,WeatherCatV1.15B25,2013-06-17 23:54:00,
2013-06-17 18:59:00,71.6,69.1,29.90,North,349,0.0,5.0,92,0.00,,,0.09,WeatherCatV1.15B25,2013-06-17 23:59:00,
2013-06-17 19:04:00,71.5,69.0,29.90,NNW,330,4.0,6.0,92,0.00,,,0.09,WeatherCatV1.15B25,2013-06-18 00:04:00,
2013-06-17 19:09:00,71.5,69.0,29.90,North,9,0.0,3.0,92,0.00,,,0.09,WeatherCatV1.15B25,2013-06-18 00:09:00,
2013-06-17 19:14:00,71.5,69.0,29.90,North,9,4.0,4.0,92,0.00,,,0.09,WeatherCatV1.15B25,2013-06-18 00:14:00,
2013-06-17 19:19:00,71.4,68.9,29.90,North,0,0.0,1.0,92,0.00,,,0.09,WeatherCatV1.15B25,2013-06-18 00:19:00,
2013-06-17 19:24:00,71.3,68.8,29.90,NNW,338,0.0,1.0,92,0.00,,,0.09,WeatherCatV1.15B25,2013-06-18 00:24:00,
2013-06-17 19:29:00,71.3,68.8,29.90,NNW,336,0.0,1.0,92,0.00,,,0.09,WeatherCatV1.15B25,2013-06-18 00:29:00,
2013-06-17 19:34:00,71.2,68.8,29.91,ESE,102,0.0,0.0,92,0.00,,,0.09,WeatherCatV1.15B25,2013-06-18 00:34:00,
2013-06-17 19:39:00,71.2,68.8,29.91,North,349,2.0,2.0,92,0.00,,,0.09,WeatherCatV1.15B25,2013-06-18 00:39:00,
2013-06-17 19:44:00,71.1,68.7,29.91,NNW,342,4.0,6.0,92,0.00,,,0.09,WeatherCatV1.15B25,2013-06-18 00:44:00,
2013-06-17 19:49:00,71.0,68.6,29.90,NNW,336,0.0,3.0,92,0.00,,,0.09,WeatherCatV1.15B25,2013-06-18 00:49:00,
2013-06-17 19:54:00,70.9,68.5,29.91,NNW,328,0.0,0.0,92,0.00,,,0.09,WeatherCatV1.15B25,2013-06-18 00:54:00,
2013-06-17 19:59:00,70.8,68.4,29.91,NNW,328,1.0,2.0,92,0.00,,,0.09,WeatherCatV1.15B25,2013-06-18 00:59:00,
2013-06-17 20:04:00,70.8,68.4,29.91,NNW,328,0.0,1.0,92,0.00,,,0.09,WeatherCatV1.15B25,2013-06-18 01:04:00,
2013-06-17 20:09:00,70.7,68.6,29.91,North,355,0.0,2.0,93,0.00,,,0.09,WeatherCatV1.15B25,2013-06-18 01:09:00,
2013-06-17 20:14:00,70.7,68.6,29.91,North,355,0.0,1.0,93,0.00,,,0.09,WeatherCatV1.15B25,2013-06-18 01:14:00,
2013-06-17 20:19:00,70.6,68.5,29.91,North,355,0.0,0.0,93,0.00,,,0.09,WeatherCatV1.15B25,2013-06-18 01:19:00,
2013-06-17 20:24:00,70.5,68.4,29.91,North,355,0.0,1.0,93,0.00,,,0.09,WeatherCatV1.15B25,2013-06-18 01:24:00,
2013-06-17 20:29:00,70.4,68.3,29.91,North,355,0.0,1.0,93,0.00,,,0.09,WeatherCatV1.15B25,2013-06-18 01:29:00,
2013-06-17 20:34:00,70.4,68.3,29.91,NNE,14,0.0,1.0,93,0.00,,,0.09,WeatherCatV1.15B25,2013-06-18 01:34:00,
2013-06-17 20:39:00,70.3,68.5,29.91,ENE,66,0.0,3.0,94,0.00,,,0.09,WeatherCatV1.15B25,2013-06-18 01:39:00,
2013-06-17 20:44:00,70.3,68.5,29.91,ENE,70,0.0,2.0,94,0.00,,,0.09,WeatherCatV1.15B25,2013-06-18 01:44:00,
2013-06-17 20:49:00,70.2,68.4,29.91,ENE,71,0.0,2.0,94,0.00,,,0.09,WeatherCatV1.15B25,2013-06-18 01:49:00,
2013-06-17 20:54:00,70.1,68.3,29.91,ENE,66,2.0,2.0,94,0.00,,,0.09,WeatherCatV1.15B25,2013-06-18 01:54:00,
2013-06-17 20:59:00,70.1,68.3,29.92,NE,53,1.0,2.0,94,0.00,,,0.09,WeatherCatV1.15B25,2013-06-18 01:59:00,
2013-06-17 21:04:00,70.1,68.3,29.92,NNW,346,3.0,3.0,94,0.00,,,0.09,WeatherCatV1.15B25,2013-06-18 02:04:00,
2013-06-17 21:09:00,70.0,68.5,29.93,NNW,345,2.0,4.0,95,0.00,,,0.09,WeatherCatV1.15B25,2013-06-18 02:09:00,
2013-06-17 21:14:00,70.0,68.5,29.92,NNW,346,2.0,3.0,95,0.00,,,0.09,WeatherCatV1.15B25,2013-06-18 02:14:00,
2013-06-17 21:19:00,69.9,68.4,29.92,North,0,0.0,0.0,95,0.00,,,0.09,WeatherCatV1.15B25,2013-06-18 02:19:00,
2013-06-17 21:24:00,69.9,68.4,29.92,North,349,1.0,2.0,95,0.00,,,0.09,WeatherCatV1.15B25,2013-06-18 02:24:00,
2013-06-17 21:29:00,69.9,68.4,29.93,North,349,1.0,2.0,95,0.00,,,0.09,WeatherCatV1.15B25,2013-06-18 02:29:00,
2013-06-17 21:34:00,69.8,68.3,29.93,North,349,1.0,4.0,95,0.00,,,0.09,WeatherCatV1.15B25,2013-06-18 02:34:00,
2013-06-17 21:39:00,69.8,68.3,29.93,North,349,0.0,2.0,95,0.00,,,0.09,WeatherCatV1.15B25,2013-06-18 02:39:00,
2013-06-17 21:44:00,69.7,68.2,29.93,North,349,0.0,0.0,95,0.00,,,0.09,WeatherCatV1.15B25,2013-06-18 02:44:00,
2013-06-17 21:49:00,69.7,68.5,29.94,NE,52,1.0,3.0,96,0.00,,,0.09,WeatherCatV1.15B25,2013-06-18 02:49:00,
2013-06-17 21:54:00,69.7,68.5,29.94,NNW,341,0.0,3.0,96,0.00,,,0.09,WeatherCatV1.15B25,2013-06-18 02:54:00,
2013-06-17 21:59:00,69.7,68.5,29.95,North,0,0.0,1.0,96,0.00,,,0.09,WeatherCatV1.15B25,2013-06-18 02:59:00,
2013-06-17 22:04:00,69.7,68.5,29.95,NE,49,3.0,5.0,96,0.00,,,0.09,WeatherCatV1.15B25,2013-06-18 03:04:00,
2013-06-17 22:09:00,69.8,68.6,29.95,NNE,25,6.0,8.0,96,0.00,,,0.09,WeatherCatV1.15B25,2013-06-18 03:09:00,
2013-06-17 22:14:00,69.7,68.5,29.96,East,87,3.0,7.0,96,0.00,,,0.09,WeatherCatV1.15B25,2013-06-18 03:14:00,
2013-06-17 22:19:00,69.3,67.5,29.97,NE,40,1.0,15.0,94,0.00,,,0.09,WeatherCatV1.15B25,2013-06-18 03:19:00,
2013-06-17 22:24:00,68.9,66.5,29.97,ENE,63,1.0,13.0,92,0.00,,,0.09,WeatherCatV1.15B25,2013-06-18 03:24:00,
2013-06-17 22:29:00,68.8,66.1,29.97,SE,132,5.0,13.0,91,0.00,,,0.09,WeatherCatV1.15B25,2013-06-18 03:29:00,
2013-06-17 22:34:00,68.5,65.8,29.97,East,80,5.0,8.0,91,0.00,,,0.09,WeatherCatV1.15B25,2013-06-18 03:34:00,
2013-06-17 22:39:00,68.1,65.4,29.97,ESE,123,4.0,15.0,91,0.00,,,0.09,WeatherCatV1.15B25,2013-06-18 03:39:00,
2013-06-17 22:44:00,67.8,65.1,29.96,East,81,3.0,7.0,91,0.00,,,0.09,WeatherCatV1.15B25,2013-06-18 03:44:00,
2013-06-17 22:49:00,67.6,64.9,29.96,ESE,105,2.0,8.0,91,0.00,,,0.09,WeatherCatV1.15B25,2013-06-18 03:49:00,
2013-06-17 22:54:00,67.4,64.7,29.96,NE,51,0.0,6.0,91,0.00,,,0.09,WeatherCatV1.15B25,2013-06-18 03:54:00,
2013-06-17 22:59:00,67.3,64.6,29.96,East,88,9.0,11.0,91,0.00,,,0.09,WeatherCatV1.15B25,2013-06-18 03:59:00,
2013-06-17 23:01:00,67.2,64.5,29.96,East,92,3.0,11.0,91,0.00,,,0.09,WeatherCatV1.15B25,2013-06-18 04:01:00,
2013-06-17 23:06:00,67.0,64.3,29.96,SE,124,0.0,3.0,91,0.00,,,0.09,WeatherCatV1.15B25,2013-06-18 04:06:00,
2013-06-17 23:11:00,66.9,63.9,29.96,ESE,104,5.0,5.0,90,0.00,,,0.09,WeatherCatV1.15B25,2013-06-18 04:11:00,
2013-06-17 23:16:00,66.7,63.7,29.95,SSE,148,1.0,4.0,90,0.00,,,0.09,WeatherCatV1.15B25,2013-06-18 04:16:00,
2013-06-17 23:21:00,66.6,63.6,29.95,East,79,2.0,4.0,90,0.00,,,0.09,WeatherCatV1.15B25,2013-06-18 04:21:00,
2013-06-17 23:26:00,66.5,63.5,29.95,ESE,104,0.0,1.0,90,0.00,,,0.09,WeatherCatV1.15B25,2013-06-18 04:26:00,
2013-06-17 23:31:00,66.5,63.2,29.95,East,90,0.0,1.0,89,0.00,,,0.09,WeatherCatV1.15B25,2013-06-18 04:31:00,
2013-06-17 23:36:00,66.4,63.1,29.95,SSE,151,0.0,1.0,89,0.00,,,0.09,WeatherCatV1.15B25,2013-06-18 04:36:00,
2013-06-17 23:41:00,66.4,63.4,29.94,South,172,0.0,2.0,90,0.00,,,0.09,WeatherCatV1.15B25,2013-06-18 04:41:00,
2013-06-17 23:46:00,66.4,63.7,29.94,South,172,0.0,0.0,91,0.00,,,0.09,WeatherCatV1.15B25,2013-06-18 04:46:00,
2013-06-17 23:51:00,66.4,63.7,29.94,South,172,0.0,0.0,91,0.00,,,0.09,WeatherCatV1.15B25,2013-06-18 04:51:00,
2013-06-17 23:56:00,66.3,63.6,29.93,South,172,0.0,0.0,91,0.00,,,0.09,WeatherCatV1.15B25,2013-06-18 04:56:00,